Time;durP1;ratioP1;P1;durP2;ratioP2;P2;SDS_P1;SDS_P2;PMS_P1;PMS_P2;Temp;Humidity;BMP_temperature;BMP_pressure;BME280_temperature;BME280_humidity;BME280_pressure;Samples;Min_cycle;Max_cycle;Signal;HPM_P1;HPM_P2
2021/07/08 00:00:23;;;;;;;;;;;;;;;22.98;60.19;100309.03;2078612;28;19921;-39
2021/07/08 00:01:23;;;;;;;;;;;;;;;22.99;60.11;100315.38;2080872;28;19924;-39
2021/07/08 00:02:24;;;;;;;;;;;;;;;22.99;60.09;100312.63;2082518;28;19967;-38
2021/07/08 00:03:25;;;;;;;;;;;;;;;22.99;60.19;100319.00;2077828;28;19979;-39
2021/07/08 00:04:25;;;;;;;;;;;;;;;22.98;60.21;100319.16;2085524;28;20017;-39
2021/07/08 00:05:25;;;;;;;;;;;;;;;22.98;60.08;100321.91;2084478;28;19937;-39
2021/07/08 00:06:26;;;;;;;;;;;;;;;22.97;60.21;100310.00;2084087;28;19927;-39
2021/07/08 00:07:27;;;;;;;;;;;;;;;22.98;60.21;100322.78;2085902;28;19920;-39
2021/07/08 00:08:27;;;;;;;;;;;;;;;22.98;60.29;100319.16;2078610;28;19917;-39
2021/07/08 00:09:27;;;;;;;;;;;;;;;22.99;60.06;100316.25;2081927;28;19916;-39
2021/07/08 00:10:33;;;;;;;;;;;;;;;22.98;60.14;100314.53;2086565;28;20566;-39
2021/07/08 00:11:33;;;;;;;;;;;;;;;22.98;60.09;100317.28;2083259;28;19995;-39
2021/07/08 00:12:34;;;;;;;;;;;;;;;22.96;60.21;100308.31;2081050;28;20314;-39
2021/07/08 00:13:34;;;;;;;;;;;;;;;22.96;60.23;100313.81;2083575;28;19924;-42
2021/07/08 00:14:35;;;;;;;;;;;;;;;22.97;60.10;100306.41;2081624;28;19920;-39
2021/07/08 00:15:36;;;;;;;;;;;;;;;22.97;60.09;100310.00;2081023;28;20293;-39
2021/07/08 00:16:36;;;;;;;;;;;;;;;22.97;60.15;100310.00;2081661;28;19928;-40
2021/07/08 00:17:37;;;;;;;;;;;;;;;22.98;60.07;100305.41;2084526;28;19924;-39
2021/07/08 00:18:37;;;;;;;;;;;;;;;22.97;60.17;100303.66;2080066;28;19908;-38
2021/07/08 00:19:37;;;;;;;;;;;;;;;22.97;60.06;100304.53;2081150;28;19923;-39
2021/07/08 00:20:39;;;;;;;;;;;;;;;22.97;60.09;100310.00;2082731;28;19913;-40
2021/07/08 00:21:39;;;;;;;;;;;;;;;22.97;60.08;100307.28;2077064;28;19912;-39
2021/07/08 00:22:40;;;;;;;;;;;;;;;22.98;60.16;100310.91;2097712;28;19912;-39
2021/07/08 00:23:40;;;;;;;;;;;;;;;22.97;60.18;100301.78;2101240;28;19920;-38
2021/07/08 00:24:41;;;;;;;;;;;;;;;22.97;60.18;100321.00;2081641;28;19916;-39
2021/07/08 00:25:42;;;;;;;;;;;;;;;22.97;60.35;100314.66;2081413;28;20274;-39
2021/07/08 00:26:43;;;;;;;;;;;;;;;22.96;60.22;100316.56;2083085;28;19917;-39
2021/07/08 00:27:43;;;;;;;;;;;;;;;22.97;60.24;100314.66;2084920;28;20012;-41
2021/07/08 00:28:44;;;;;;;;;;;;;;;22.97;60.34;100310.00;2081013;28;20208;-39
2021/07/08 00:29:44;;;;;;;;;;;;;;;22.96;60.14;100313.81;2084150;28;19958;-39
2021/07/08 00:30:46;;;;;;;;;;;;;;;22.96;60.42;100319.31;2082833;28;20372;-39
2021/07/08 00:31:46;;;;;;;;;;;;;;;22.96;60.17;100311.06;2083229;28;20344;-39
2021/07/08 00:32:47;;;;;;;;;;;;;;;22.96;60.17;100319.31;2082912;28;20370;-39
2021/07/08 00:33:48;;;;;;;;;;;;;;;22.96;60.40;100318.47;2081492;28;20348;-39
2021/07/08 00:34:48;;;;;;;;;;;;;;;22.95;60.29;100317.56;2084130;28;20296;-39
2021/07/08 00:35:49;;;;;;;;;;;;;;;22.96;60.30;100321.19;2080687;28;19960;-39
2021/07/08 00:36:49;;;;;;;;;;;;;;;22.95;60.24;100320.31;2081425;28;19916;-38
2021/07/08 00:37:49;;;;;;;;;;;;;;;22.96;60.21;100318.47;2084905;28;19952;-39
2021/07/08 00:38:50;;;;;;;;;;;;;;;22.96;60.10;100319.31;2084432;28;19954;-39
2021/07/08 00:39:51;;;;;;;;;;;;;;;22.94;60.26;100321.38;2084021;28;19916;-39
2021/07/08 00:40:51;;;;;;;;;;;;;;;22.96;60.21;100323.94;2085427;28;20353;-39
2021/07/08 00:41:51;;;;;;;;;;;;;;;22.96;60.26;100324.81;2082938;28;19920;-39
2021/07/08 00:42:52;;;;;;;;;;;;;;;22.96;60.30;100321.19;2085710;28;19977;-39
2021/07/08 00:43:52;;;;;;;;;;;;;;;22.94;60.25;100321.38;2083698;28;19963;-39
2021/07/08 00:44:52;;;;;;;;;;;;;;;22.95;60.24;100320.31;2084842;28;19947;-38
2021/07/08 00:45:53;;;;;;;;;;;;;;;22.94;60.22;100321.38;2084686;28;20238;-39
2021/07/08 00:46:53;;;;;;;;;;;;;;;22.95;60.41;100323.06;2079726;28;19931;-39
2021/07/08 00:47:54;;;;;;;;;;;;;;;22.95;60.19;100323.06;2075851;28;20323;-39
2021/07/08 00:48:54;;;;;;;;;;;;;;;22.94;60.21;100321.38;2082056;28;19994;-39
2021/07/08 00:49:54;;;;;;;;;;;;;;;22.95;60.25;100317.56;2081978;28;19924;-38
2021/07/08 00:50:55;;;;;;;;;;;;;;;22.95;60.32;100323.06;2084798;28;19916;-39
2021/07/08 00:51:55;;;;;;;;;;;;;;;22.93;60.22;100316.91;2081545;28;19920;-39
2021/07/08 00:52:55;;;;;;;;;;;;;;;22.93;60.27;100319.66;2079108;28;19917;-39
2021/07/08 00:53:56;;;;;;;;;;;;;;;22.93;60.35;100324.28;2083901;28;21174;-39
2021/07/08 00:54:56;;;;;;;;;;;;;;;22.93;60.25;100322.41;2083334;28;20086;-38
2021/07/08 00:55:58;;;;;;;;;;;;;;;22.93;60.29;100319.66;2084622;28;19923;-39
2021/07/08 00:56:58;;;;;;;;;;;;;;;22.92;60.35;100317.91;2083923;28;20103;-39
2021/07/08 00:57:58;;;;;;;;;;;;;;;22.93;60.25;100325.16;2078382;28;19919;-39
2021/07/08 00:59:04;;;;;;;;;;;;;;;22.92;60.30;100328.91;2079439;28;19994;-39
2021/07/08 01:00:04;;;;;;;;;;;;;;;22.92;60.33;100334.41;2078588;28;20281;-39
2021/07/08 01:01:05;;;;;;;;;;;;;;;22.92;60.28;100323.41;2078887;28;20559;-38
2021/07/08 01:02:05;;;;;;;;;;;;;;;22.93;60.35;100329.75;2081209;28;20230;-39
2021/07/08 01:03:10;;;;;;;;;;;;;;;22.93;60.21;100329.75;2078925;28;19917;-39
2021/07/08 01:04:11;;;;;;;;;;;;;;;22.92;60.21;100328.91;2081635;28;20004;-39
2021/07/08 01:05:12;;;;;;;;;;;;;;;22.91;60.27;100324.47;2079766;28;19920;-39
2021/07/08 01:06:12;;;;;;;;;;;;;;;22.90;60.25;100325.47;2078489;28;20281;-40
2021/07/08 01:07:18;;;;;;;;;;;;;;;22.91;60.24;100321.72;2082048;28;19978;-39
2021/07/08 01:08:18;;;;;;;;;;;;;;;22.91;60.24;100327.22;2100699;28;20357;-39
2021/07/08 01:09:19;;;;;;;;;;;;;;;22.89;60.36;100329.25;2094115;28;19915;-39
2021/07/08 01:10:19;;;;;;;;;;;;;;;22.90;60.28;100319.97;2082253;28;19964;-39
2021/07/08 01:11:20;;;;;;;;;;;;;;;22.88;60.24;100322.03;2085815;28;19923;-40
2021/07/08 01:12:20;;;;;;;;;;;;;;;22.90;60.39;100325.47;2097416;28;20041;-39
2021/07/08 01:13:20;;;;;;;;;;;;;;;22.89;60.25;100323.75;2103368;27;20348;-42
2021/07/08 01:14:21;;;;;;;;;;;;;;;22.90;60.29;100319.97;2081585;28;19998;-39
2021/07/08 01:15:21;;;;;;;;;;;;;;;22.89;60.37;100323.75;2084308;28;20022;-39
2021/07/08 01:16:24;;;;;;;;;;;;;;;22.88;60.34;100330.28;2085305;28;20015;-39
2021/07/08 01:17:24;;;;;;;;;;;;;;;22.89;60.36;100329.25;2078666;28;19944;-38
2021/07/08 01:18:24;;;;;;;;;;;;;;;22.89;60.34;100329.25;2078470;28;19916;-39
2021/07/08 01:19:27;;;;;;;;;;;;;;;22.88;60.32;100322.91;2079697;28;19983;-38
2021/07/08 01:20:28;;;;;;;;;;;;;;;22.89;60.39;100332.00;2077966;28;19965;-39
2021/07/08 01:21:30;;;;;;;;;;;;;;;22.89;60.41;100321.00;2081515;28;20606;-39
2021/07/08 01:22:30;;;;;;;;;;;;;;;22.88;60.37;100322.03;2084585;28;19917;-39
2021/07/08 01:23:31;;;;;;;;;;;;;;;22.90;60.36;100323.56;2082938;28;20298;-38
2021/07/08 01:24:31;;;;;;;;;;;;;;;22.88;60.39;100322.91;2080213;28;20276;-39
2021/07/08 01:25:33;;;;;;;;;;;;;;;22.88;60.51;100327.53;2079611;28;19928;-39
2021/07/08 01:26:37;;;;;;;;;;;;;;;22.87;60.43;100325.81;2082953;28;19962;-39
2021/07/08 01:27:38;;;;;;;;;;;;;;;22.86;60.37;100329.59;2078437;28;19928;-39
2021/07/08 01:28:38;;;;;;;;;;;;;;;22.87;60.50;100320.31;2079488;28;19922;-38
2021/07/08 01:29:39;;;;;;;;;;;;;;;22.87;60.33;100328.56;2084088;28;19912;-39
2021/07/08 01:30:39;;;;;;;;;;;;;;;22.86;60.50;100321.34;2083347;28;19913;-39
2021/07/08 01:31:40;;;;;;;;;;;;;;;22.86;60.31;100324.97;2085322;28;20242;-39
2021/07/08 01:32:40;;;;;;;;;;;;;;;22.85;60.42;100317.72;2084079;28;19962;-39
2021/07/08 01:33:40;;;;;;;;;;;;;;;22.86;60.37;100324.09;2083387;28;20243;-39
2021/07/08 01:34:41;;;;;;;;;;;;;;;22.85;60.44;100323.22;2083440;28;19959;-39
2021/07/08 01:35:41;;;;;;;;;;;;;;;22.85;60.40;100328.72;2085565;28;20361;-39
2021/07/08 01:36:41;;;;;;;;;;;;;;;22.85;60.34;100325.13;2084597;28;19923;-39
2021/07/08 01:37:42;;;;;;;;;;;;;;;22.85;60.34;100317.72;2084034;28;19921;-39
2021/07/08 01:38:43;;;;;;;;;;;;;;;22.85;60.48;100323.22;2085588;28;20402;-39
2021/07/08 01:39:44;;;;;;;;;;;;;;;22.85;60.17;100327.88;2081142;28;19916;-39
2021/07/08 01:40:45;;;;;;;;;;;;;;;22.85;60.28;100325.97;2084087;28;19944;-39
2021/07/08 01:41:45;;;;;;;;;;;;;;;22.85;60.33;100322.38;2082284;28;19916;-39
2021/07/08 01:42:46;;;;;;;;;;;;;;;22.84;60.54;100323.41;2084605;28;19916;-39
2021/07/08 01:43:46;;;;;;;;;;;;;;;22.84;60.47;100323.41;2080279;28;20186;-39
2021/07/08 01:44:47;;;;;;;;;;;;;;;22.85;60.41;100327.88;2080704;28;20380;-39
2021/07/08 01:45:47;;;;;;;;;;;;;;;22.85;60.48;100330.63;2085260;28;19913;-38
2021/07/08 01:46:47;;;;;;;;;;;;;;;22.85;60.45;100330.63;2083539;28;19916;-39
2021/07/08 01:47:48;;;;;;;;;;;;;;;22.85;60.53;100322.38;2083065;28;19979;-39
2021/07/08 01:48:48;;;;;;;;;;;;;;;22.85;60.44;100322.38;2084609;28;20347;-39
2021/07/08 01:49:49;;;;;;;;;;;;;;;22.85;60.42;100325.13;2083654;28;19916;-38
2021/07/08 01:50:49;;;;;;;;;;;;;;;22.85;60.45;100323.22;2083775;28;20603;-39
2021/07/08 01:51:50;;;;;;;;;;;;;;;22.86;60.48;100329.59;2083865;28;19963;-39
2021/07/08 01:52:50;;;;;;;;;;;;;;;22.85;60.29;100322.38;2083616;28;19916;-39
2021/07/08 01:53:51;;;;;;;;;;;;;;;22.85;60.42;100327.88;2083907;28;20305;-39
2021/07/08 01:54:51;;;;;;;;;;;;;;;22.84;60.37;100329.75;2083722;28;20053;-39
2021/07/08 01:55:52;;;;;;;;;;;;;;;22.85;60.28;100325.13;2083414;28;20320;-38
2021/07/08 01:56:52;;;;;;;;;;;;;;;22.85;60.50;100327.88;2082603;28;20290;-39
2021/07/08 01:57:52;;;;;;;;;;;;;;;22.86;60.50;100332.34;2084969;28;19916;-39
2021/07/08 01:58:53;;;;;;;;;;;;;;;22.85;60.32;100327.88;2084937;28;19943;-39
2021/07/08 01:59:53;;;;;;;;;;;;;;;22.85;60.49;100327.88;2085003;28;20388;-39
2021/07/08 02:00:54;;;;;;;;;;;;;;;22.85;60.44;100322.38;2084350;28;19916;-39
2021/07/08 02:01:54;;;;;;;;;;;;;;;22.84;60.27;100321.50;2083699;28;20002;-39
2021/07/08 02:02:56;;;;;;;;;;;;;;;22.84;60.30;100323.41;2084659;28;19916;-39
2021/07/08 02:03:57;;;;;;;;;;;;;;;22.85;60.50;100327.88;2082757;28;19923;-39
2021/07/08 02:04:57;;;;;;;;;;;;;;;22.84;60.31;100331.66;2084411;28;20290;-39
2021/07/08 02:05:58;;;;;;;;;;;;;;;22.85;60.38;100333.38;2084113;28;19916;-39
2021/07/08 02:06:58;;;;;;;;;;;;;;;22.85;60.56;100333.38;2084742;28;19913;-39
2021/07/08 02:07:59;;;;;;;;;;;;;;;22.85;60.27;100328.72;2084128;28;19924;-38
2021/07/08 02:08:59;;;;;;;;;;;;;;;22.85;60.41;100333.38;2098897;28;19919;-39
2021/07/08 02:09:59;;;;;;;;;;;;;;;22.85;60.33;100338.84;2098003;28;19904;-39
2021/07/08 02:11:00;;;;;;;;;;;;;;;22.84;60.31;100328.91;2083579;28;19989;-39
2021/07/08 02:12:01;;;;;;;;;;;;;;;22.85;60.37;100338.84;2084136;28;20301;-39
2021/07/08 02:13:02;;;;;;;;;;;;;;;22.85;60.39;100339.72;2087725;28;20224;-40
2021/07/08 02:14:03;;;;;;;;;;;;;;;22.86;60.28;100329.59;2080245;28;20319;-40
2021/07/08 02:15:05;;;;;;;;;;;;;;;22.86;60.29;100332.34;2084673;28;20623;-39
2021/07/08 02:16:06;;;;;;;;;;;;;;;22.85;60.36;100336.13;2079570;28;20309;-39
2021/07/08 02:17:06;;;;;;;;;;;;;;;22.85;60.28;100330.63;2081260;28;20235;-39
2021/07/08 02:18:07;;;;;;;;;;;;;;;22.85;60.41;100330.63;2084903;28;19917;-39
2021/07/08 02:19:07;;;;;;;;;;;;;;;22.85;60.32;100327.88;2082711;28;19917;-39
2021/07/08 02:20:09;;;;;;;;;;;;;;;22.86;60.31;100324.09;2083914;28;19963;-39
2021/07/08 02:21:11;;;;;;;;;;;;;;;22.85;60.45;100327.88;2080836;28;20228;-39
2021/07/08 02:22:12;;;;;;;;;;;;;;;22.85;60.35;100327.88;2080877;28;20200;-39
2021/07/08 02:23:12;;;;;;;;;;;;;;;22.85;60.27;100327.88;2078967;28;19970;-40
2021/07/08 02:24:12;;;;;;;;;;;;;;;22.85;60.51;100327.88;2078758;28;19931;-39
2021/07/08 02:25:13;;;;;;;;;;;;;;;22.85;60.32;100327.88;2085633;28;19916;-38
2021/07/08 02:26:14;;;;;;;;;;;;;;;22.85;60.41;100330.63;2099439;28;20258;-39
2021/07/08 02:27:14;;;;;;;;;;;;;;;22.85;60.32;100333.38;2082663;28;20389;-39
2021/07/08 02:28:15;;;;;;;;;;;;;;;22.85;60.40;100336.13;2084459;28;19923;-39
2021/07/08 02:29:15;;;;;;;;;;;;;;;22.85;60.38;100338.84;2081874;28;19920;-39
2021/07/08 02:30:21;;;;;;;;;;;;;;;22.85;60.28;100334.22;2095412;28;20395;-39
2021/07/08 02:31:21;;;;;;;;;;;;;;;22.86;60.20;100340.59;2094624;28;19915;-39
2021/07/08 02:32:21;;;;;;;;;;;;;;;22.85;60.36;100333.38;2080809;28;19928;-38
2021/07/08 02:33:22;;;;;;;;;;;;;;;22.85;60.46;100327.88;2084504;28;20264;-39
2021/07/08 02:34:22;;;;;;;;;;;;;;;22.84;60.26;100331.66;2083013;28;20399;-38
2021/07/08 02:35:24;;;;;;;;;;;;;;;22.85;60.27;100336.13;2083137;28;19923;-39
2021/07/08 02:36:25;;;;;;;;;;;;;;;22.84;60.36;100331.66;2079929;28;20390;-39
2021/07/08 02:37:25;;;;;;;;;;;;;;;22.83;60.34;100325.31;2084512;28;19916;-39
2021/07/08 02:38:25;;;;;;;;;;;;;;;22.83;60.29;100333.56;2084251;28;20003;-40
2021/07/08 02:39:25;;;;;;;;;;;;;;;22.84;60.31;100331.66;2082652;28;20044;-39
2021/07/08 02:40:33;;;;;;;;;;;;;;;22.84;60.38;100331.66;2078931;28;19963;-40
2021/07/08 02:41:33;;;;;;;;;;;;;;;22.84;60.43;100339.91;2082588;28;20268;-39
2021/07/08 02:42:33;;;;;;;;;;;;;;;22.84;60.39;100340.75;2079169;28;19918;-39
2021/07/08 02:43:34;;;;;;;;;;;;;;;22.84;60.36;100332.50;2081287;28;20129;-40
2021/07/08 02:44:34;;;;;;;;;;;;;;;22.83;60.33;100336.31;2082499;28;20658;-39
2021/07/08 02:45:37;;;;;;;;;;;;;;;22.83;60.28;100329.91;2099960;28;20216;-38
2021/07/08 02:46:37;;;;;;;;;;;;;;;22.83;60.31;100335.41;2098860;28;19970;-38
2021/07/08 02:47:38;;;;;;;;;;;;;;;22.83;60.36;100339.03;2082004;28;20337;-38
2021/07/08 02:48:38;;;;;;;;;;;;;;;22.83;60.31;100346.41;2092212;28;20007;-38
2021/07/08 02:49:38;;;;;;;;;;;;;;;22.84;60.25;100345.41;2098789;28;20225;-39
2021/07/08 02:50:41;;;;;;;;;;;;;;;22.83;60.27;100340.91;2085662;28;20577;-38
2021/07/08 02:51:42;;;;;;;;;;;;;;;22.83;60.50;100343.66;2083328;28;20326;-39
2021/07/08 02:52:43;;;;;;;;;;;;;;;22.82;60.38;100334.56;2083266;28;19924;-39
2021/07/08 02:53:43;;;;;;;;;;;;;;;22.82;60.35;100340.06;2083164;28;19916;-39
2021/07/08 02:54:43;;;;;;;;;;;;;;;22.82;60.35;100329.06;2083933;28;19928;-39
2021/07/08 02:55:44;;;;;;;;;;;;;;;22.84;60.43;100337.16;2087008;28;19951;-39
2021/07/08 02:56:45;;;;;;;;;;;;;;;22.83;60.25;100332.66;2085175;28;20431;-39
2021/07/08 02:57:48;;;;;;;;;;;;;;;22.83;60.30;100340.91;2084744;28;19965;-39
2021/07/08 02:58:48;;;;;;;;;;;;;;;22.82;60.48;100337.31;2084375;28;19912;-39
2021/07/08 02:59:49;;;;;;;;;;;;;;;22.82;60.39;100341.97;2084592;28;19946;-39
2021/07/08 03:00:50;;;;;;;;;;;;;;;22.83;60.38;100341.78;2087539;28;19912;-38
2021/07/08 03:01:51;;;;;;;;;;;;;;;22.82;60.28;100336.47;2083752;28;19917;-39
2021/07/08 03:02:52;;;;;;;;;;;;;;;22.82;60.28;100339.22;2085993;28;20661;-39
2021/07/08 03:03:52;;;;;;;;;;;;;;;22.82;60.39;100340.06;2083216;28;20269;-39
2021/07/08 03:04:52;;;;;;;;;;;;;;;22.82;60.46;100344.69;2076585;28;19991;-39
2021/07/08 03:05:53;;;;;;;;;;;;;;;22.82;60.46;100344.69;2085556;28;19931;-39
2021/07/08 03:06:53;;;;;;;;;;;;;;;22.82;60.28;100341.97;2084185;28;20147;-39
2021/07/08 03:07:53;;;;;;;;;;;;;;;22.81;60.47;100343.84;2086491;28;20346;-39
2021/07/08 03:08:53;;;;;;;;;;;;;;;22.81;60.32;100348.50;2084756;28;20486;-38
2021/07/08 03:09:54;;;;;;;;;;;;;;;22.81;60.53;100343.00;2088786;28;19913;-39
2021/07/08 03:10:54;;;;;;;;;;;;;;;22.81;60.40;100349.34;2085976;28;19917;-39
2021/07/08 03:11:55;;;;;;;;;;;;;;;22.81;60.53;100348.50;2084150;28;20006;-38
2021/07/08 03:12:55;;;;;;;;;;;;;;;22.82;60.37;100341.97;2090299;28;20227;-39
2021/07/08 03:13:56;;;;;;;;;;;;;;;22.82;60.49;100350.19;2079133;28;20357;-39
2021/07/08 03:14:56;;;;;;;;;;;;;;;22.81;60.33;100348.50;2082236;28;20143;-39
2021/07/08 03:15:56;;;;;;;;;;;;;;;22.81;60.43;100351.25;2086353;28;19925;-39
2021/07/08 03:16:57;;;;;;;;;;;;;;;22.81;60.31;100354.84;2082889;28;20124;-38
2021/07/08 03:17:57;;;;;;;;;;;;;;;22.81;60.46;100359.50;2078607;28;19916;-38
2021/07/08 03:18:57;;;;;;;;;;;;;;;22.81;60.25;100356.75;2077868;28;20282;-39
2021/07/08 03:19:58;;;;;;;;;;;;;;;22.81;60.32;100359.50;2078846;28;19908;-39
2021/07/08 03:20:58;;;;;;;;;;;;;;;22.81;60.43;100359.50;2078468;28;19925;-39
2021/07/08 03:21:58;;;;;;;;;;;;;;;22.81;60.43;100359.50;2081430;28;20009;-39
2021/07/08 03:22:59;;;;;;;;;;;;;;;22.80;60.26;100357.75;2087202;28;19924;-39
2021/07/08 03:23:59;;;;;;;;;;;;;;;22.79;60.39;100354.16;2084927;28;19912;-39
2021/07/08 03:24:59;;;;;;;;;;;;;;;22.81;60.52;100364.97;2079049;28;19920;-39
2021/07/08 03:25:59;;;;;;;;;;;;;;;22.82;60.47;100361.19;2083095;28;20320;-39
2021/07/08 03:27:00;;;;;;;;;;;;;;;22.82;60.46;100361.19;2084777;28;20046;-38
2021/07/08 03:28:00;;;;;;;;;;;;;;;22.80;60.25;100364.09;2083990;28;19952;-39
2021/07/08 03:29:01;;;;;;;;;;;;;;;22.82;60.30;100358.44;2085959;28;20357;-38
2021/07/08 03:30:04;;;;;;;;;;;;;;;22.80;60.33;100357.75;2086392;28;20380;-39
2021/07/08 03:31:04;;;;;;;;;;;;;;;22.81;60.32;100364.97;2084553;28;19927;-39
2021/07/08 03:32:05;;;;;;;;;;;;;;;22.80;60.31;100360.50;2085189;28;19950;-38
2021/07/08 03:33:05;;;;;;;;;;;;;;;22.79;60.31;100367.03;2077973;28;20369;-38
2021/07/08 03:34:05;;;;;;;;;;;;;;;22.79;60.46;100367.03;2080798;28;20359;-39
2021/07/08 03:35:06;;;;;;;;;;;;;;;22.80;60.37;100364.09;2086094;28;20358;-39
2021/07/08 03:36:06;;;;;;;;;;;;;;;22.80;60.46;100363.25;2081734;28;19941;-39
2021/07/08 03:37:07;;;;;;;;;;;;;;;22.80;60.37;100368.75;2078537;28;19948;-39
2021/07/08 03:38:07;;;;;;;;;;;;;;;22.80;60.30;100374.22;2079666;28;19917;-39
2021/07/08 03:39:07;;;;;;;;;;;;;;;22.79;60.44;100373.38;2082774;28;20039;-38
2021/07/08 03:40:09;;;;;;;;;;;;;;;22.79;60.41;100373.38;2085976;28;19916;-38
2021/07/08 03:41:09;;;;;;;;;;;;;;;22.79;60.39;100361.53;2085019;28;20473;-39
2021/07/08 03:42:09;;;;;;;;;;;;;;;22.79;60.31;100372.53;2085431;28;19916;-39
2021/07/08 03:43:10;;;;;;;;;;;;;;;22.78;60.41;100370.78;2079893;28;19917;-38
2021/07/08 03:44:10;;;;;;;;;;;;;;;22.78;60.44;100371.66;2078939;28;20356;-40
2021/07/08 03:45:12;;;;;;;;;;;;;;;22.78;60.28;100368.03;2086103;28;19930;-39
2021/07/08 03:46:12;;;;;;;;;;;;;;;22.78;60.40;100371.66;2084235;28;19924;-39
2021/07/08 03:47:13;;;;;;;;;;;;;;;22.78;60.44;100365.28;2086502;28;19948;-39
2021/07/08 03:48:13;;;;;;;;;;;;;;;22.77;60.37;100374.56;2084619;28;20007;-38
2021/07/08 03:49:15;;;;;;;;;;;;;;;22.77;60.40;100371.84;2085976;28;19917;-39
2021/07/08 03:50:15;;;;;;;;;;;;;;;22.76;60.52;100370.97;2084859;28;20377;-38
2021/07/08 03:51:16;;;;;;;;;;;;;;;22.78;60.56;100371.66;2085144;28;19966;-38
2021/07/08 03:52:16;;;;;;;;;;;;;;;22.78;60.54;100377.13;2085994;28;19917;-39
2021/07/08 03:53:16;;;;;;;;;;;;;;;22.78;60.27;100370.78;2082575;28;19920;-39
2021/07/08 03:54:17;;;;;;;;;;;;;;;22.78;60.46;100371.66;2086199;28;19917;-39
2021/07/08 03:55:18;;;;;;;;;;;;;;;22.78;60.44;100368.03;2084127;28;19998;-39
2021/07/08 03:56:19;;;;;;;;;;;;;;;22.78;60.35;100368.03;2084156;28;19927;-39
2021/07/08 03:57:19;;;;;;;;;;;;;;;22.79;60.52;100372.53;2086635;28;19912;-39
2021/07/08 03:58:19;;;;;;;;;;;;;;;22.78;60.47;100370.78;2082485;28;19924;-39
2021/07/08 03:59:20;;;;;;;;;;;;;;;22.78;60.34;100374.41;2086628;28;20365;-39
2021/07/08 04:00:37;;;;;;;;;;;;;;;22.79;60.41;100375.28;2083668;28;20360;-39
2021/07/08 04:01:39;;;;;;;;;;;;;;;22.77;60.32;100369.94;2084696;28;20398;-39
2021/07/08 04:02:39;;;;;;;;;;;;;;;22.77;60.40;100377.31;2086561;28;19913;-38
2021/07/08 04:03:39;;;;;;;;;;;;;;;22.77;60.51;100377.31;2080986;28;19917;-39
2021/07/08 04:04:41;;;;;;;;;;;;;;;22.77;60.49;100369.09;2081335;28;20058;-39
2021/07/08 04:05:43;;;;;;;;;;;;;;;22.78;60.39;100376.28;2086348;28;19912;-39
2021/07/08 04:06:44;;;;;;;;;;;;;;;22.78;60.55;100373.53;2083347;28;19916;-38
2021/07/08 04:07:44;;;;;;;;;;;;;;;22.76;60.43;100372.84;2084471;28;20073;-39
2021/07/08 04:08:44;;;;;;;;;;;;;;;22.77;60.28;100374.56;2085103;28;19924;-39
2021/07/08 04:09:45;;;;;;;;;;;;;;;22.78;60.32;100373.53;2086863;28;19916;-39
2021/07/08 04:10:45;;;;;;;;;;;;;;;22.77;60.43;100369.94;2077261;28;19924;-38
2021/07/08 04:11:46;;;;;;;;;;;;;;;22.77;60.45;100369.94;2079496;28;20315;-39
2021/07/08 04:12:46;;;;;;;;;;;;;;;22.77;60.29;100374.56;2086894;28;19982;-39
2021/07/08 04:13:46;;;;;;;;;;;;;;;22.77;60.43;100375.44;2084098;28;19916;-39
2021/07/08 04:14:47;;;;;;;;;;;;;;;22.78;60.36;100370.78;2077768;28;19917;-38
2021/07/08 04:15:48;;;;;;;;;;;;;;;22.78;60.23;100379.88;2079056;28;19917;-39
2021/07/08 04:16:48;;;;;;;;;;;;;;;22.79;60.46;100375.28;2081706;28;19916;-39
2021/07/08 04:17:48;;;;;;;;;;;;;;;22.78;60.33;100373.53;2078177;28;20262;-39
2021/07/08 04:18:49;;;;;;;;;;;;;;;22.77;60.33;100374.56;2080493;28;19916;-39
2021/07/08 04:19:49;;;;;;;;;;;;;;;22.78;60.31;100379.03;2086260;28;20361;-39
2021/07/08 04:20:50;;;;;;;;;;;;;;;22.78;60.31;100382.63;2080386;28;20489;-39
2021/07/08 04:21:50;;;;;;;;;;;;;;;22.78;60.25;100387.28;2079912;28;19924;-39
2021/07/08 04:22:51;;;;;;;;;;;;;;;22.77;60.38;100386.44;2085684;28;20631;-39
2021/07/08 04:23:51;;;;;;;;;;;;;;;22.78;60.31;100381.78;2083126;28;19959;-38
2021/07/08 04:24:51;;;;;;;;;;;;;;;22.79;60.43;100380.78;2086653;28;19962;-39
2021/07/08 04:25:52;;;;;;;;;;;;;;;22.78;60.31;100387.28;2083832;28;19943;-38
2021/07/08 04:26:52;;;;;;;;;;;;;;;22.78;60.43;100396.38;2085154;28;20331;-39
2021/07/08 04:27:53;;;;;;;;;;;;;;;22.79;60.25;100389.03;2081978;28;19943;-39
2021/07/08 04:28:53;;;;;;;;;;;;;;;22.77;60.26;100385.56;2084924;28;19986;-39
2021/07/08 04:29:53;;;;;;;;;;;;;;;22.77;60.28;100380.06;2086142;28;19966;-39
2021/07/08 04:30:54;;;;;;;;;;;;;;;22.76;60.30;100383.84;2081608;28;19923;-39
2021/07/08 04:31:54;;;;;;;;;;;;;;;22.78;60.38;100388.13;2085803;28;20458;-39
2021/07/08 04:32:55;;;;;;;;;;;;;;;22.78;60.43;100392.78;2084319;28;20259;-38
2021/07/08 04:33:55;;;;;;;;;;;;;;;22.77;60.29;100385.56;2081115;28;19966;-39
2021/07/08 04:34:56;;;;;;;;;;;;;;;22.78;60.38;100381.78;2083894;28;19920;-41
2021/07/08 04:35:56;;;;;;;;;;;;;;;22.78;60.31;100379.03;2081116;28;19978;-39
2021/07/08 04:36:57;;;;;;;;;;;;;;;22.76;60.43;100384.72;2081784;28;19923;-39
2021/07/08 04:37:58;;;;;;;;;;;;;;;22.78;60.31;100392.78;2080441;28;19916;-38
2021/07/08 04:38:58;;;;;;;;;;;;;;;22.77;60.46;100391.91;2085277;28;19955;-39
2021/07/08 04:39:59;;;;;;;;;;;;;;;22.76;60.34;100394.81;2086370;28;19935;-39
2021/07/08 04:40:59;;;;;;;;;;;;;;;22.76;60.33;100395.72;2080282;28;19905;-39
2021/07/08 04:42:00;;;;;;;;;;;;;;;22.79;60.35;100394.50;2083473;28;20603;-39
2021/07/08 04:43:00;;;;;;;;;;;;;;;22.77;60.17;100393.81;2083407;28;20067;-39
2021/07/08 04:44:00;;;;;;;;;;;;;;;22.79;60.19;100397.25;2085650;28;20296;-39
2021/07/08 04:45:01;;;;;;;;;;;;;;;22.77;60.42;100400.16;2085562;28;19912;-39
2021/07/08 04:46:01;;;;;;;;;;;;;;;22.77;60.20;100402.06;2085497;28;20250;-39
2021/07/08 04:47:01;;;;;;;;;;;;;;;22.77;60.36;100402.06;2084842;28;19955;-39
2021/07/08 04:48:02;;;;;;;;;;;;;;;22.77;60.33;100404.81;2082593;28;20456;-39
2021/07/08 04:49:02;;;;;;;;;;;;;;;22.78;60.19;100406.50;2086325;28;19926;-39
2021/07/08 04:50:07;;;;;;;;;;;;;;;22.78;60.18;100401.03;2085005;28;20362;-39
2021/07/08 04:51:07;;;;;;;;;;;;;;;22.78;60.41;100415.63;2079822;28;19940;-39
2021/07/08 04:52:07;;;;;;;;;;;;;;;22.77;60.38;100402.91;2084128;28;19915;-39
2021/07/08 04:53:08;;;;;;;;;;;;;;;22.77;60.20;100404.81;2082224;28;20235;-39
2021/07/08 04:54:08;;;;;;;;;;;;;;;22.75;60.37;100404.09;2085801;28;19904;-39
2021/07/08 04:55:09;;;;;;;;;;;;;;;22.77;60.35;100404.81;2083356;28;19924;-38
2021/07/08 04:56:09;;;;;;;;;;;;;;;22.76;60.38;100406.72;2078283;28;19905;-38
2021/07/08 04:57:10;;;;;;;;;;;;;;;22.76;60.42;100411.31;2091327;28;20362;-39
2021/07/08 04:58:10;;;;;;;;;;;;;;;22.74;60.20;100407.91;2081541;28;19995;-39
2021/07/08 04:59:11;;;;;;;;;;;;;;;22.75;60.44;100412.34;2085091;28;19933;-40
2021/07/08 05:00:12;;;;;;;;;;;;;;;22.73;60.45;100411.66;2082546;28;19924;-38
2021/07/08 05:01:13;;;;;;;;;;;;;;;22.74;60.45;100408.75;2100526;28;19947;-39
2021/07/08 05:02:14;;;;;;;;;;;;;;;22.73;60.40;100417.16;2087487;28;19916;-39
2021/07/08 05:03:15;;;;;;;;;;;;;;;22.71;60.32;100411.84;2077730;28;19998;-39
2021/07/08 05:04:15;;;;;;;;;;;;;;;22.72;60.35;100409.94;2086378;28;19917;-39
2021/07/08 05:05:16;;;;;;;;;;;;;;;22.72;60.45;100409.94;2079548;28;20000;-39
2021/07/08 05:06:16;;;;;;;;;;;;;;;22.73;60.49;100406.16;2079781;28;20271;-39
2021/07/08 05:07:17;;;;;;;;;;;;;;;22.72;60.34;100412.69;2079113;28;19925;-39
2021/07/08 05:08:17;;;;;;;;;;;;;;;22.72;60.40;100410.81;2082833;28;20196;-39
2021/07/08 05:09:17;;;;;;;;;;;;;;;22.72;60.40;100409.94;2077780;28;19919;-39
2021/07/08 05:10:18;;;;;;;;;;;;;;;22.72;60.38;100404.44;2080729;28;20106;-39
2021/07/08 05:11:18;;;;;;;;;;;;;;;22.71;60.29;100414.59;2084015;28;19995;-39